FLIGHT DETAILS
Pilot: AWX0001 Luca Nicolini Aircraft: BARE METAL Distance: 56NM
Departure LGSR Arrival LGML Duration 00:26
Validation Validated Type Charter Tail Number I-AWX1
ZFW 3962 Block Fuel/Initial FOB 39/0 Flight Fuel 33
Passengers 4 Cargo 0 Alternate
Departure Time Cruise Speed Flight Level 2500
Flight Type VFR Aircraft Type DHC6 Weight Unit Kg
Date 25-08-2019 Pilot Comments Network OFFLINE
Crashed No Validator Comments Flight Rating 100

 ROUTE
ROUTE VFR
REMARKS
 FLIGHT FAILURES
Crashed OK Beacon off & Engine Running OK KIAS Above 250 below 10000 FT OK
Lights OFF below 10000 FT OK Lights ON above 10000 FT OK Stall OK
Overspeed OK Flight paused OK Refueling OK
Slew detected OK Taxi & Taxi lights off OK Take off & lights off OK
Landing & lights off OK Landed in not planned airport OK Taxi Speed OK
Wrong altimeter in Take off OK Wrong altimeter in Landing OK
 LANDING ANALYSIS
Landing wind 339º/0 kt Landing heading 185
Landing VS: -297.58 ft/min Landing IAS: 76.38 kt
Landing Force G 1 G Landing Bank -1.6
Landing Pitch -2 Landing Flaps 29
Navigation Lights ON Landing Lights ON
Beacon Lights ON Strobe Lights ON
 FLIGHT MAP
 ALTITUDE CHART
 FLIGHT FINANCIAL REPORT
Onboard Advertising 1,000.00
WiFi Onboard Connection(14). Number of PAX: 4 56.00
Number of PAX:4 .Price per PAX:14 56.00
Aerodrome Facility Charges -20.00
HUB Expenses -1,200.00
Aircraft Insurance -1,369.00
Enroute Facility Charges(0.04). Distance: 56 -2.24
Airport Charges -1,000.00
Maintenance Costs(1.1). Distance: 56 -61.60
Administration Expenses -300.00
Fuel Expenses(0.6). Fuel used: 38.84 -23.30
TOTAL -2,864.14
 MAIN EVENTS
DATE EVENTIASALTITUDE
2019-08-24 17:43:04 SIM ACARS version 1.4.00117
2019-08-24 17:43:05 BOARDING0117
2019-08-24 17:44:19 STARTING ENGINE 1 0117
2019-08-24 17:44:21 STARTING ENGINE 2 0117
2019-08-24 17:44:43 FLAPS EXTENSION 1 % 0117
2019-08-24 17:44:43 FLAPS EXTENSION 3 % 0117
2019-08-24 17:44:43 FLAPS EXTENSION 3 % 0117
2019-08-24 17:44:43 FLAPS EXTENSION 4 % 0117
2019-08-24 17:51:11 TAXI TO THE RWY 9117
2019-08-24 17:52:53 ROLLING FOR TAKE OFF39117
2019-08-24 17:52:58 FLAPS EXTENSION 5 % 60121
2019-08-24 17:52:58 FLAPS EXTENSION 7 % 61121
2019-08-24 17:52:58 FLAPS EXTENSION 8 % 61121
2019-08-24 17:52:58 FLAPS EXTENSION 9 % 62121
2019-08-24 17:52:58 FLAPS EXTENSION 10 % 62121
2019-08-24 17:52:58 FLAPS EXTENSION 12 % 63121
2019-08-24 17:52:58 FLAPS EXTENSION 14 % 63121
2019-08-24 17:52:58 FLAPS EXTENSION 15 % 64122
2019-08-24 17:52:59 FLAPS EXTENSION 17 % 64122
2019-08-24 17:52:59 FLAPS EXTENSION 18 % 65122
2019-08-24 17:52:59 FLAPS EXTENSION 19 % 65122
2019-08-24 17:52:59 FLAPS EXTENSION 21 % 65122
2019-08-24 17:52:59 FLAPS EXTENSION 22 % 66122
2019-08-24 17:52:59 FLAPS EXTENSION 23 % 66122
2019-08-24 17:52:59 FLAPS EXTENSION 25 % 66122
2019-08-24 17:53:02 FLAPS EXTENSION 26 % 74124
2019-08-24 17:53:02 FLAPS EXTENSION 28 % 75125
2019-08-24 17:53:02 FLAPS EXTENSION 28 % 75125
2019-08-24 17:53:02 FLAPS EXTENSION 30 % 75125
2019-08-24 17:53:02 FLAPS EXTENSION 32 % 76125
2019-08-24 17:53:02 FLAPS EXTENSION 33 % 76125
2019-08-24 17:53:02 FLAPS EXTENSION 34 % 76125
2019-08-24 17:53:03 FLAPS EXTENSION 35 % 76126
2019-08-24 17:53:03 TAKE OFF78129
2019-08-24 17:53:56 FLAPS EXTENSION 33 % 83679
2019-08-24 17:53:56 FLAPS EXTENSION 32 % 83680
2019-08-24 17:53:56 FLAPS EXTENSION 31 % 83681
2019-08-24 17:53:56 FLAPS EXTENSION 30 % 83682
2019-08-24 17:54:01 FLAPS EXTENSION 29 % 84714
2019-08-24 17:54:01 FLAPS EXTENSION 27 % 84715
2019-08-24 17:54:01 FLAPS EXTENSION 26 % 84716
2019-08-24 17:54:01 FLAPS EXTENSION 25 % 84717
2019-08-24 17:54:01 FLAPS EXTENSION 23 % 84718
2019-08-24 17:54:01 FLAPS EXTENSION 22 % 84719
2019-08-24 17:54:01 FLAPS EXTENSION 20 % 84720
2019-08-24 17:54:02 FLAPS EXTENSION 19 % 84720
2019-08-24 17:54:02 FLAPS EXTENSION 18 % 84721
2019-08-24 17:54:02 FLAPS EXTENSION 16 % 84721
2019-08-24 17:54:02 FLAPS EXTENSION 14 % 84722
2019-08-24 17:54:02 FLAPS EXTENSION 14 % 84723
2019-08-24 17:54:02 FLAPS EXTENSION 12 % 84723
2019-08-24 17:54:02 FLAPS EXTENSION 10 % 84724
2019-08-24 17:54:02 FLAPS EXTENSION 9 % 84724
2019-08-24 17:54:02 FLAPS EXTENSION 8 % 84725
2019-08-24 17:54:02 FLAPS EXTENSION 7 % 84725
2019-08-24 17:54:03 FLAPS EXTENSION 5 % 85726
2019-08-24 17:54:03 FLAPS EXTENSION 3 % 85726
2019-08-24 17:54:03 FLAPS EXTENSION 3 % 85727
2019-08-24 17:54:03 FLAPS EXTENSION 1 % 85727
2019-08-24 17:54:03 FLAPS EXTENSION 0 % 85728
2019-08-24 17:57:13 DESCEND1841900
2019-08-24 17:58:43 CRUISE1212313
2019-08-24 18:16:53 DESCEND1152198
2019-08-24 18:19:21 FLAPS EXTENSION 1 % 102326
2019-08-24 18:19:22 FLAPS EXTENSION 2 % 102325
2019-08-24 18:19:22 FLAPS EXTENSION 4 % 101323
2019-08-24 18:19:22 FLAPS EXTENSION 4 % 101322
2019-08-24 18:19:22 FLAPS EXTENSION 6 % 101314
2019-08-24 18:19:23 FLAPS EXTENSION 7 % 101313
2019-08-24 18:19:23 FLAPS EXTENSION 8 % 101301
2019-08-24 18:19:24 FLAPS EXTENSION 9 % 101300
2019-08-24 18:19:24 FLAPS EXTENSION 10 % 101299
2019-08-24 18:19:24 FLAPS EXTENSION 11 % 101297
2019-08-24 18:19:29 FLAPS EXTENSION 12 % 97239
2019-08-24 18:19:29 FLAPS EXTENSION 14 % 97237
2019-08-24 18:19:30 FLAPS EXTENSION 17 % 97233
2019-08-24 18:19:30 FLAPS EXTENSION 18 % 97230
2019-08-24 18:19:30 FLAPS EXTENSION 19 % 97229
2019-08-24 18:19:30 FLAPS EXTENSION 21 % 97226
2019-08-24 18:19:30 FLAPS EXTENSION 22 % 97225
2019-08-24 18:19:34 FLAPS EXTENSION 23 % 93191
2019-08-24 18:19:34 FLAPS EXTENSION 25 % 93190
2019-08-24 18:19:35 FLAPS EXTENSION 27 % 93188
2019-08-24 18:19:35 FLAPS EXTENSION 28 % 93187
2019-08-24 18:19:35 FLAPS EXTENSION 29 % 93185
2019-08-24 18:19:37 FLAPS EXTENSION 30 % 93158
2019-08-24 18:19:37 FLAPS EXTENSION 32 % 93156
2019-08-24 18:19:37 FLAPS EXTENSION 33 % 93155
2019-08-24 18:19:37 FLAPS EXTENSION 35 % 93154
2019-08-24 18:19:37 FLAPS EXTENSION 35 % 93153
2019-08-24 18:19:39 FLAPS EXTENSION 37 % 91133
2019-08-24 18:19:39 FLAPS EXTENSION 39 % 91132
2019-08-24 18:19:39 FLAPS EXTENSION 40 % 91131
2019-08-24 18:19:41 FLAPS EXTENSION 41 % 90115
2019-08-24 18:19:41 FLAPS EXTENSION 42 % 89114
2019-08-24 18:19:41 FLAPS EXTENSION 44 % 89113
2019-08-24 18:19:41 FLAPS EXTENSION 44 % 89112
2019-08-24 18:19:41 FLAPS EXTENSION 46 % 89110
2019-08-24 18:19:42 FLAPS EXTENSION 47 % 89109
2019-08-24 18:19:44 FLAPS EXTENSION 49 % 8786
2019-08-24 18:19:44 FLAPS EXTENSION 50 % 8685
2019-08-24 18:19:44 FLAPS EXTENSION 51 % 8684
2019-08-24 18:19:44 FLAPS EXTENSION 52 % 8683
2019-08-24 18:19:45 FLAPS EXTENSION 54 % 8681
2019-08-24 18:19:45 FLAPS EXTENSION 55 % 8680
2019-08-24 18:19:49 FLAPS EXTENSION 56 % 8152
2019-08-24 18:19:49 FLAPS EXTENSION 57 % 8151
2019-08-24 18:19:49 FLAPS EXTENSION 58 % 8150
2019-08-24 18:19:49 FLAPS EXTENSION 60 % 8149
2019-08-24 18:19:49 FLAPS EXTENSION 61 % 8149
2019-08-24 18:19:49 FLAPS EXTENSION 62 % 8148
2019-08-24 18:19:50 FLAPS EXTENSION 64 % 8147
2019-08-24 18:19:50 FLAPS EXTENSION 65 % 8147
2019-08-24 18:19:50 FLAPS EXTENSION 66 % 8146
2019-08-24 18:19:53 LANDING7632
2019-08-24 18:20:12 TAXI TO THE GATE2019
2019-08-24 18:20:24 FLAPS EXTENSION 64 % 018
2019-08-24 18:20:24 FLAPS EXTENSION 62 % 018
2019-08-24 18:20:25 FLAPS EXTENSION 61 % 018
2019-08-24 18:20:25 FLAPS EXTENSION 60 % 018
2019-08-24 18:20:25 FLAPS EXTENSION 58 % 018
2019-08-24 18:20:25 FLAPS EXTENSION 57 % 018
2019-08-24 18:20:25 FLAPS EXTENSION 56 % 018
2019-08-24 18:20:25 FLAPS EXTENSION 54 % 018
2019-08-24 18:20:25 FLAPS EXTENSION 53 % 018
2019-08-24 18:20:25 FLAPS EXTENSION 51 % 018
2019-08-24 18:20:25 FLAPS EXTENSION 51 % 018
2019-08-24 18:20:26 FLAPS EXTENSION 49 % 018
2019-08-24 18:20:26 FLAPS EXTENSION 47 % 018
2019-08-24 18:20:26 FLAPS EXTENSION 46 % 018
2019-08-24 18:20:26 FLAPS EXTENSION 45 % 018
2019-08-24 18:20:26 FLAPS EXTENSION 44 % 018
2019-08-24 18:20:30 FLAPS EXTENSION 42 % 018
2019-08-24 18:20:30 FLAPS EXTENSION 40 % 018
2019-08-24 18:20:30 FLAPS EXTENSION 39 % 018
2019-08-24 18:20:31 FLAPS EXTENSION 38 % 018
2019-08-24 18:20:31 FLAPS EXTENSION 36 % 018
2019-08-24 18:20:31 FLAPS EXTENSION 35 % 018
2019-08-24 18:20:31 FLAPS EXTENSION 34 % 018
2019-08-24 18:20:31 FLAPS EXTENSION 32 % 018
2019-08-24 18:20:31 FLAPS EXTENSION 31 % 018
2019-08-24 18:20:31 FLAPS EXTENSION 29 % 018
2019-08-24 18:20:31 FLAPS EXTENSION 29 % 018
2019-08-24 18:20:31 FLAPS EXTENSION 27 % 118
2019-08-24 18:20:31 FLAPS EXTENSION 25 % 118
2019-08-24 18:20:32 FLAPS EXTENSION 24 % 118
2019-08-24 18:20:32 FLAPS EXTENSION 23 % 118
2019-08-24 18:20:32 FLAPS EXTENSION 21 % 118
2019-08-24 18:20:32 FLAPS EXTENSION 20 % 118
2019-08-24 18:20:32 FLAPS EXTENSION 19 % 218
2019-08-24 18:20:32 FLAPS EXTENSION 17 % 218
2019-08-24 18:20:32 FLAPS EXTENSION 16 % 218
2019-08-24 18:20:32 FLAPS EXTENSION 14 % 218
2019-08-24 18:20:32 FLAPS EXTENSION 13 % 218
2019-08-24 18:20:33 FLAPS EXTENSION 12 % 218
2019-08-24 18:20:33 FLAPS EXTENSION 10 % 218
2019-08-24 18:20:33 FLAPS EXTENSION 9 % 218
2019-08-24 18:20:33 FLAPS EXTENSION 7 % 218
2019-08-24 18:20:33 FLAPS EXTENSION 6 % 318
2019-08-24 18:20:33 FLAPS EXTENSION 5 % 318
2019-08-24 18:20:33 FLAPS EXTENSION 3 % 318
2019-08-24 18:20:33 FLAPS EXTENSION 2 % 318
2019-08-24 18:20:33 FLAPS EXTENSION 1 % 318
2019-08-24 18:20:34 FLAPS EXTENSION 0 % 318
 ACARS DATA
DATE IASGSALTITUDEFUEL CONSUMED OATFLIGHT STATUS
2019-08-24 17:44:0400117125BOARDING
2019-08-24 17:45:0400117125BOARDING
2019-08-24 17:46:0400117225BOARDING
2019-08-24 17:47:0400117225BOARDING
2019-08-24 17:48:0400117325BOARDING
2019-08-24 17:49:0444119325BOARDING
2019-08-24 17:50:0400120425BOARDING
2019-08-24 17:51:0467119425BOARDING
2019-08-24 17:52:0400114525TAXI TO THE RWY
2019-08-24 17:53:048083133624CLIMBING
2019-08-24 17:54:048584737723CLIMBING
2019-08-24 17:55:0484821271822CLIMBING
2019-08-24 17:56:0411211516211021CLIMBING
2019-08-24 17:57:0416217522251220CLIMBING
2019-08-24 17:58:0412612822131320DESCEND
2019-08-24 17:59:0412112323121420CRUISE
2019-08-24 18:00:0411912023511620CRUISE
2019-08-24 18:01:0412012223691720CRUISE
2019-08-24 18:02:0412212323681820CRUISE
2019-08-24 18:03:0412212423681920CRUISE
2019-08-24 18:04:0412212423682020CRUISE
2019-08-24 18:05:0412212423682120CRUISE
2019-08-24 18:06:0412212123682220CRUISE
2019-08-24 18:07:0412212123682420CRUISE
2019-08-24 18:08:0412212123682520CRUISE
2019-08-24 18:09:0413514523692620CRUISE
2019-08-24 18:10:0414115123682720CRUISE
2019-08-24 18:11:0414215223682920CRUISE
2019-08-24 18:12:0414215023683020CRUISE
2019-08-24 18:13:0414214923683220CRUISE
2019-08-24 18:14:0414214923683320CRUISE
2019-08-24 18:15:0414314823413420CRUISE
2019-08-24 18:16:0413213423333620CRUISE
2019-08-24 18:17:0411511620643620DESCEND
2019-08-24 18:18:0411110712383722DESCEND
2019-08-24 18:19:041101105083824DESCEND
2019-08-24 18:20:045958203825LANDED
2019-08-24 18:21:041413203925TAXI TO THE GATE
2019-08-24 18:22:0444283925TAXI TO THE GATE